sensor_id;sensor_type;location;lat;lon;timestamp;pressure;altitude;pressure_sealevel;temperature;humidity
63321;BME280;49449;48.800;9.534;2022-08-01T00:02:22;98549.00;;;21.52;31.67
63321;BME280;49449;48.800;9.534;2022-08-01T00:04:53;98535.06;;;21.50;31.83
63321;BME280;49449;48.800;9.534;2022-08-01T00:07:21;98536.16;;;21.49;31.62
63321;BME280;49449;48.800;9.534;2022-08-01T00:09:49;98537.03;;;21.45;31.77
63321;BME280;49449;48.800;9.534;2022-08-01T00:12:16;98535.19;;;21.31;31.98
63321;BME280;49449;48.800;9.534;2022-08-01T00:14:46;98537.75;;;21.36;32.25
63321;BME280;49449;48.800;9.534;2022-08-01T00:17:13;98540.66;;;21.40;32.09
63321;BME280;49449;48.800;9.534;2022-08-01T00:19:41;98530.09;;;21.44;32.09
63321;BME280;49449;48.800;9.534;2022-08-01T00:22:09;98547.00;;;21.44;31.95
63321;BME280;49449;48.800;9.534;2022-08-01T00:24:37;98541.13;;;21.42;32.50
63321;BME280;49449;48.800;9.534;2022-08-01T00:27:05;98538.94;;;21.44;32.70
63321;BME280;49449;48.800;9.534;2022-08-01T00:29:32;98546.50;;;21.42;32.70
63321;BME280;49449;48.800;9.534;2022-08-01T00:32:02;98547.41;;;21.37;33.22
63321;BME280;49449;48.800;9.534;2022-08-01T00:34:30;98556.56;;;21.36;33.34
63321;BME280;49449;48.800;9.534;2022-08-01T00:36:58;98555.25;;;21.34;33.52
63321;BME280;49449;48.800;9.534;2022-08-01T00:39:26;98557.94;;;21.34;33.20
63321;BME280;49449;48.800;9.534;2022-08-01T00:41:53;98552.69;;;21.29;33.43
63321;BME280;49449;48.800;9.534;2022-08-01T00:44:21;98555.97;;;21.26;33.45
63321;BME280;49449;48.800;9.534;2022-08-01T00:46:49;98552.47;;;21.25;33.72
63321;BME280;49449;48.800;9.534;2022-08-01T00:49:18;98554.47;;;21.20;33.91
63321;BME280;49449;48.800;9.534;2022-08-01T00:51:46;98549.81;;;21.11;33.70
63321;BME280;49449;48.800;9.534;2022-08-01T00:54:14;98554.16;;;21.07;33.76
63321;BME280;49449;48.800;9.534;2022-08-01T00:56:45;98551.06;;;21.00;34.07
63321;BME280;49449;48.800;9.534;2022-08-01T00:59:14;98560.31;;;20.94;33.91
63321;BME280;49449;48.800;9.534;2022-08-01T01:01:42;98557.41;;;20.90;34.27
63321;BME280;49449;48.800;9.534;2022-08-01T01:04:10;98556.19;;;20.83;34.04
63321;BME280;49449;48.800;9.534;2022-08-01T01:06:44;98557.53;;;20.66;34.66
63321;BME280;49449;48.800;9.534;2022-08-01T01:09:17;98559.31;;;20.57;34.10
63321;BME280;49449;48.800;9.534;2022-08-01T01:11:57;98561.25;;;20.51;34.14
63321;BME280;49449;48.800;9.534;2022-08-01T01:14:36;98562.16;;;20.47;34.20
63321;BME280;49449;48.800;9.534;2022-08-01T01:17:11;98568.00;;;20.49;34.16
63321;BME280;49449;48.800;9.534;2022-08-01T01:19:47;98567.81;;;20.45;34.34
63321;BME280;49449;48.800;9.534;2022-08-01T01:22:36;98566.94;;;20.50;34.30
63321;BME280;49449;48.800;9.534;2022-08-01T01:25:14;98569.84;;;20.53;34.23
63321;BME280;49449;48.800;9.534;2022-08-01T01:27:51;98568.16;;;20.57;34.11
63321;BME280;49449;48.800;9.534;2022-08-01T01:30:24;98571.63;;;20.58;34.41
63321;BME280;49449;48.800;9.534;2022-08-01T01:32:54;98574.59;;;20.56;34.48
63321;BME280;49449;48.800;9.534;2022-08-01T01:35:25;98571.50;;;20.49;34.58
63321;BME280;49449;48.800;9.534;2022-08-01T01:37:59;98570.00;;;20.43;34.27
63321;BME280;49449;48.800;9.534;2022-08-01T01:40:29;98570.44;;;20.31;34.62
63321;BME280;49449;48.800;9.534;2022-08-01T01:42:58;98573.41;;;20.30;34.86
63321;BME280;49449;48.800;9.534;2022-08-01T01:45:28;98572.91;;;20.28;35.02
63321;BME280;49449;48.800;9.534;2022-08-01T01:47:57;98576.91;;;20.30;35.17
63321;BME280;49449;48.800;9.534;2022-08-01T01:50:27;98576.72;;;20.40;34.82
63321;BME280;49449;48.800;9.534;2022-08-01T01:52:56;98581.00;;;20.41;34.53
63321;BME280;49449;48.800;9.534;2022-08-01T01:55:25;98585.88;;;20.39;35.02
63321;BME280;49449;48.800;9.534;2022-08-01T01:57:55;98581.78;;;20.42;34.89
63321;BME280;49449;48.800;9.534;2022-08-01T02:00:24;98583.75;;;20.36;34.82
63321;BME280;49449;48.800;9.534;2022-08-01T02:02:55;98584.06;;;20.35;34.93
63321;BME280;49449;48.800;9.534;2022-08-01T02:05:25;98580.59;;;20.34;35.38
63321;BME280;49449;48.800;9.534;2022-08-01T02:07:56;98579.19;;;20.37;35.13
63321;BME280;49449;48.800;9.534;2022-08-01T02:10:25;98578.41;;;20.36;35.30
63321;BME280;49449;48.800;9.534;2022-08-01T02:12:55;98576.78;;;20.35;35.14
63321;BME280;49449;48.800;9.534;2022-08-01T02:15:24;98584.84;;;20.35;35.24
63321;BME280;49449;48.800;9.534;2022-08-01T02:17:54;98588.13;;;20.32;35.30
63321;BME280;49449;48.800;9.534;2022-08-01T02:20:24;98578.97;;;20.33;35.10
63321;BME280;49449;48.800;9.534;2022-08-01T02:22:59;98580.66;;;20.29;35.27
63321;BME280;49449;48.800;9.534;2022-08-01T02:25:32;98586.56;;;20.26;35.17
63321;BME280;49449;48.800;9.534;2022-08-01T02:28:04;98583.88;;;20.26;35.38
63321;BME280;49449;48.800;9.534;2022-08-01T02:30:39;98582.94;;;20.17;35.29
63321;BME280;49449;48.800;9.534;2022-08-01T02:33:15;98582.00;;;20.08;35.79
63321;BME280;49449;48.800;9.534;2022-08-01T02:35:48;98587.44;;;20.02;35.48
63321;BME280;49449;48.800;9.534;2022-08-01T02:38:18;98593.88;;;20.01;35.78
63321;BME280;49449;48.800;9.534;2022-08-01T02:40:50;98592.88;;;19.97;35.78
63321;BME280;49449;48.800;9.534;2022-08-01T02:43:21;98599.03;;;19.98;36.18
63321;BME280;49449;48.800;9.534;2022-08-01T02:45:53;98593.88;;;20.01;35.64
63321;BME280;49449;48.800;9.534;2022-08-01T02:48:24;98591.19;;;20.01;35.53
63321;BME280;49449;48.800;9.534;2022-08-01T02:50:55;98595.78;;;20.01;35.81
63321;BME280;49449;48.800;9.534;2022-08-01T02:53:25;98600.56;;;20.04;35.92
63321;BME280;49449;48.800;9.534;2022-08-01T02:55:54;98603.59;;;19.97;35.98
63321;BME280;49449;48.800;9.534;2022-08-01T02:58:23;98605.78;;;19.95;35.86
63321;BME280;49449;48.800;9.534;2022-08-01T03:00:52;98606.06;;;19.94;36.08
63321;BME280;49449;48.800;9.534;2022-08-01T03:03:22;98607.41;;;19.91;35.69
63321;BME280;49449;48.800;9.534;2022-08-01T03:05:50;98608.75;;;19.94;36.06
63321;BME280;49449;48.800;9.534;2022-08-01T03:08:20;98606.63;;;19.91;35.92
63321;BME280;49449;48.800;9.534;2022-08-01T03:10:53;98612.28;;;19.89;35.88
63321;BME280;49449;48.800;9.534;2022-08-01T03:13:25;98610.41;;;19.90;35.85
63321;BME280;49449;48.800;9.534;2022-08-01T03:15:56;98604.88;;;19.81;36.49
63321;BME280;49449;48.800;9.534;2022-08-01T03:18:26;98604.50;;;19.69;36.12
63321;BME280;49449;48.800;9.534;2022-08-01T03:20:59;98602.59;;;19.69;36.66
63321;BME280;49449;48.800;9.534;2022-08-01T03:23:29;98611.00;;;19.62;36.62
63321;BME280;49449;48.800;9.534;2022-08-01T03:25:59;98614.56;;;19.53;36.77
63321;BME280;49449;48.800;9.534;2022-08-01T03:28:29;98617.53;;;19.51;36.94
63321;BME280;49449;48.800;9.534;2022-08-01T03:30:58;98622.56;;;19.58;36.82
63321;BME280;49449;48.800;9.534;2022-08-01T03:33:29;98610.50;;;19.55;36.54
63321;BME280;49449;48.800;9.534;2022-08-01T03:35:59;98609.94;;;19.58;36.85
63321;BME280;49449;48.800;9.534;2022-08-01T03:38:30;98618.25;;;19.57;36.88
63321;BME280;49449;48.800;9.534;2022-08-01T03:41:07;98626.06;;;19.53;36.61
63321;BME280;49449;48.800;9.534;2022-08-01T03:43:39;98626.53;;;19.60;36.86
63321;BME280;49449;48.800;9.534;2022-08-01T03:46:16;98622.25;;;19.59;36.73
63321;BME280;49449;48.800;9.534;2022-08-01T03:48:48;98635.94;;;19.58;36.58
63321;BME280;49449;48.800;9.534;2022-08-01T03:51:18;98624.91;;;19.59;36.15
63321;BME280;49449;48.800;9.534;2022-08-01T03:53:49;98618.81;;;19.54;36.26
63321;BME280;49449;48.800;9.534;2022-08-01T03:56:19;98620.81;;;19.43;36.40
63321;BME280;49449;48.800;9.534;2022-08-01T03:58:49;98618.28;;;19.27;36.74
63321;BME280;49449;48.800;9.534;2022-08-01T04:01:18;98620.50;;;19.20;37.09
63321;BME280;49449;48.800;9.534;2022-08-01T04:03:48;98621.59;;;19.19;37.39
63321;BME280;49449;48.800;9.534;2022-08-01T04:06:16;98618.34;;;19.22;37.09
63321;BME280;49449;48.800;9.534;2022-08-01T04:08:44;98622.34;;;19.25;37.35
63321;BME280;49449;48.800;9.534;2022-08-01T04:11:21;98625.03;;;19.25;36.98
63321;BME280;49449;48.800;9.534;2022-08-01T04:13:51;98625.22;;;19.34;36.84
63321;BME280;49449;48.800;9.534;2022-08-01T04:16:20;98622.47;;;19.39;36.68
63321;BME280;49449;48.800;9.534;2022-08-01T04:18:49;98628.63;;;19.39;36.87
63321;BME280;49449;48.800;9.534;2022-08-01T04:21:20;98628.34;;;19.41;36.62
63321;BME280;49449;48.800;9.534;2022-08-01T04:23:53;98631.81;;;19.41;36.68
63321;BME280;49449;48.800;9.534;2022-08-01T04:26:21;98633.97;;;19.39;36.80
63321;BME280;49449;48.800;9.534;2022-08-01T04:28:50;98642.03;;;19.39;36.67
63321;BME280;49449;48.800;9.534;2022-08-01T04:31:22;98636.88;;;19.43;36.64
63321;BME280;49449;48.800;9.534;2022-08-01T04:33:57;98640.81;;;19.51;36.84
63321;BME280;49449;48.800;9.534;2022-08-01T04:36:27;98646.06;;;19.61;36.64
63321;BME280;49449;48.800;9.534;2022-08-01T04:38:58;98646.78;;;19.72;35.96
63321;BME280;49449;48.800;9.534;2022-08-01T04:41:28;98651.03;;;19.78;36.19
63321;BME280;49449;48.800;9.534;2022-08-01T04:43:57;98648.28;;;19.83;36.18
63321;BME280;49449;48.800;9.534;2022-08-01T04:46:27;98646.09;;;19.85;36.02
63321;BME280;49449;48.800;9.534;2022-08-01T04:48:57;98650.41;;;19.86;36.37
63321;BME280;49449;48.800;9.534;2022-08-01T04:51:26;98649.19;;;19.73;36.76
63321;BME280;49449;48.800;9.534;2022-08-01T04:53:54;98651.97;;;19.63;36.84
63321;BME280;49449;48.800;9.534;2022-08-01T04:56:24;98648.16;;;19.69;36.79
63321;BME280;49449;48.800;9.534;2022-08-01T04:58:52;98654.16;;;19.85;36.57
63321;BME280;49449;48.800;9.534;2022-08-01T05:01:34;98656.38;;;20.02;36.04
63321;BME280;49449;48.800;9.534;2022-08-01T05:04:03;98654.56;;;20.16;36.26
63321;BME280;49449;48.800;9.534;2022-08-01T05:06:33;98653.09;;;20.29;35.81
63321;BME280;49449;48.800;9.534;2022-08-01T05:09:00;98652.06;;;20.44;35.89
63321;BME280;49449;48.800;9.534;2022-08-01T05:11:28;98649.38;;;20.63;35.88
63321;BME280;49449;48.800;9.534;2022-08-01T05:13:57;98646.47;;;20.78;34.99
63321;BME280;49449;48.800;9.534;2022-08-01T05:16:24;98647.03;;;20.94;35.09
63321;BME280;49449;48.800;9.534;2022-08-01T05:18:52;98638.53;;;21.06;34.63
63321;BME280;49449;48.800;9.534;2022-08-01T05:21:22;98640.94;;;21.22;34.47
63321;BME280;49449;48.800;9.534;2022-08-01T05:23:49;98645.81;;;21.33;34.27
63321;BME280;49449;48.800;9.534;2022-08-01T05:26:17;98645.25;;;21.50;34.22
63321;BME280;49449;48.800;9.534;2022-08-01T05:28:45;98643.50;;;21.60;34.12
63321;BME280;49449;48.800;9.534;2022-08-01T05:31:13;98639.69;;;21.74;33.78
63321;BME280;49449;48.800;9.534;2022-08-01T05:33:41;98636.22;;;21.74;33.93
63321;BME280;49449;48.800;9.534;2022-08-01T05:36:08;98637.22;;;21.78;34.02
63321;BME280;49449;48.800;9.534;2022-08-01T05:38:40;98636.91;;;21.93;33.68
63321;BME280;49449;48.800;9.534;2022-08-01T05:41:08;98632.09;;;22.04;33.69
63321;BME280;49449;48.800;9.534;2022-08-01T05:43:36;98639.47;;;22.12;33.54
63321;BME280;49449;48.800;9.534;2022-08-01T05:46:04;98639.00;;;22.24;33.42
63321;BME280;49449;48.800;9.534;2022-08-01T05:48:32;98633.97;;;22.32;33.39
63321;BME280;49449;48.800;9.534;2022-08-01T05:51:01;98635.63;;;22.41;33.03
63321;BME280;49449;48.800;9.534;2022-08-01T05:53:29;98636.84;;;22.58;33.13
63321;BME280;49449;48.800;9.534;2022-08-01T05:56:02;98632.72;;;22.74;32.69
63321;BME280;49449;48.800;9.534;2022-08-01T05:58:30;98646.28;;;22.83;32.62
63321;BME280;49449;48.800;9.534;2022-08-01T06:00:58;98648.03;;;22.87;32.76
63321;BME280;49449;48.800;9.534;2022-08-01T06:03:26;98653.00;;;22.94;32.45
63321;BME280;49449;48.800;9.534;2022-08-01T06:05:59;98649.75;;;23.06;32.12
63321;BME280;49449;48.800;9.534;2022-08-01T06:08:27;98651.84;;;23.09;32.24
63321;BME280;49449;48.800;9.534;2022-08-01T06:10:55;98648.25;;;23.22;32.39
63321;BME280;49449;48.800;9.534;2022-08-01T06:13:25;98655.84;;;23.20;32.22
63321;BME280;49449;48.800;9.534;2022-08-01T06:15:53;98650.09;;;23.13;32.22
63321;BME280;49449;48.800;9.534;2022-08-01T06:18:21;98651.19;;;23.12;32.00
63321;BME280;49449;48.800;9.534;2022-08-01T06:20:51;98656.97;;;23.28;31.87
63321;BME280;49449;48.800;9.534;2022-08-01T06:23:20;98656.63;;;23.43;31.97
63321;BME280;49449;48.800;9.534;2022-08-01T06:25:48;98659.09;;;23.62;31.34
63321;BME280;49449;48.800;9.534;2022-08-01T06:28:19;98649.44;;;23.79;31.54
63321;BME280;49449;48.800;9.534;2022-08-01T06:30:50;98644.91;;;23.97;31.24
63321;BME280;49449;48.800;9.534;2022-08-01T06:33:18;98652.56;;;24.04;30.94
63321;BME280;49449;48.800;9.534;2022-08-01T06:35:46;98652.84;;;24.02;31.25
63321;BME280;49449;48.800;9.534;2022-08-01T06:38:14;98654.63;;;24.07;31.28
63321;BME280;49449;48.800;9.534;2022-08-01T06:40:42;98655.88;;;24.09;31.69
63321;BME280;49449;48.800;9.534;2022-08-01T06:43:09;98657.19;;;24.21;31.35
63321;BME280;49449;48.800;9.534;2022-08-01T06:45:38;98652.44;;;24.35;31.01
63321;BME280;49449;48.800;9.534;2022-08-01T06:48:07;98658.31;;;24.46;31.22
63321;BME280;49449;48.800;9.534;2022-08-01T06:50:38;98652.16;;;24.54;30.70
63321;BME280;49449;48.800;9.534;2022-08-01T06:53:06;98650.09;;;24.60;31.23
63321;BME280;49449;48.800;9.534;2022-08-01T06:55:34;98646.59;;;24.59;31.00
63321;BME280;49449;48.800;9.534;2022-08-01T06:58:02;98657.88;;;24.70;31.00
63321;BME280;49449;48.800;9.534;2022-08-01T07:00:30;98655.78;;;24.84;30.75
63321;BME280;49449;48.800;9.534;2022-08-01T07:03:00;98650.69;;;24.91;30.91
63321;BME280;49449;48.800;9.534;2022-08-01T07:05:31;98652.59;;;24.82;30.67
63321;BME280;49449;48.800;9.534;2022-08-01T07:07:59;98651.63;;;24.96;30.17
63321;BME280;49449;48.800;9.534;2022-08-01T07:10:27;98644.66;;;24.94;30.43
63321;BME280;49449;48.800;9.534;2022-08-01T07:12:54;98648.91;;;24.96;30.31
63321;BME280;49449;48.800;9.534;2022-08-01T07:15:23;98643.03;;;25.11;30.57
63321;BME280;49449;48.800;9.534;2022-08-01T07:17:53;98641.59;;;25.05;30.44
63321;BME280;49449;48.800;9.534;2022-08-01T07:20:21;98641.75;;;25.08;30.60
63321;BME280;49449;48.800;9.534;2022-08-01T07:22:50;98636.81;;;25.19;29.80
63321;BME280;49449;48.800;9.534;2022-08-01T07:25:18;98642.50;;;25.35;30.30
63321;BME280;49449;48.800;9.534;2022-08-01T07:27:49;98639.25;;;25.42;29.51
63321;BME280;49449;48.800;9.534;2022-08-01T07:30:17;98635.00;;;25.41;29.95
63321;BME280;49449;48.800;9.534;2022-08-01T07:32:45;98638.44;;;25.50;30.46
63321;BME280;49449;48.800;9.534;2022-08-01T07:35:13;98635.53;;;25.17;29.89
63321;BME280;49449;48.800;9.534;2022-08-01T07:37:41;98632.13;;;25.37;30.02
63321;BME280;49449;48.800;9.534;2022-08-01T07:40:13;98638.16;;;25.43;30.34
63321;BME280;49449;48.800;9.534;2022-08-01T07:42:42;98631.78;;;25.47;30.10
63321;BME280;49449;48.800;9.534;2022-08-01T07:45:13;98631.09;;;25.59;30.22
63321;BME280;49449;48.800;9.534;2022-08-01T07:47:42;98631.69;;;25.65;29.59
63321;BME280;49449;48.800;9.534;2022-08-01T07:50:10;98635.31;;;25.78;29.84
63321;BME280;49449;48.800;9.534;2022-08-01T07:52:39;98638.25;;;25.94;29.44
63321;BME280;49449;48.800;9.534;2022-08-01T07:55:09;98636.28;;;26.03;29.68
63321;BME280;49449;48.800;9.534;2022-08-01T07:57:41;98630.91;;;26.24;29.20
63321;BME280;49449;48.800;9.534;2022-08-01T08:00:09;98629.34;;;26.14;29.01
63321;BME280;49449;48.800;9.534;2022-08-01T08:02:38;98626.59;;;26.23;28.68
63321;BME280;49449;48.800;9.534;2022-08-01T08:05:06;98628.00;;;26.29;29.13
63321;BME280;49449;48.800;9.534;2022-08-01T08:07:38;98629.22;;;26.53;28.73
63321;BME280;49449;48.800;9.534;2022-08-01T08:10:07;98623.00;;;26.52;29.16
63321;BME280;49449;48.800;9.534;2022-08-01T08:12:37;98625.47;;;26.24;28.72
63321;BME280;49449;48.800;9.534;2022-08-01T08:15:09;98633.66;;;26.36;28.52
63321;BME280;49449;48.800;9.534;2022-08-01T08:17:37;98629.63;;;26.21;28.65
63321;BME280;49449;48.800;9.534;2022-08-01T08:20:06;98626.31;;;26.16;28.76
63321;BME280;49449;48.800;9.534;2022-08-01T08:22:36;98627.16;;;26.16;29.08
63321;BME280;49449;48.800;9.534;2022-08-01T08:25:05;98623.41;;;26.42;28.91
63321;BME280;49449;48.800;9.534;2022-08-01T08:27:34;98621.00;;;26.61;28.47
63321;BME280;49449;48.800;9.534;2022-08-01T08:30:04;98620.06;;;26.66;28.17
63321;BME280;49449;48.800;9.534;2022-08-01T08:32:35;98623.22;;;26.68;28.84
63321;BME280;49449;48.800;9.534;2022-08-01T08:35:05;98622.25;;;26.85;28.01
63321;BME280;49449;48.800;9.534;2022-08-01T08:37:34;98628.72;;;26.93;27.97
63321;BME280;49449;48.800;9.534;2022-08-01T08:40:03;98625.47;;;26.99;27.70
63321;BME280;49449;48.800;9.534;2022-08-01T08:42:31;98614.84;;;27.07;27.66
63321;BME280;49449;48.800;9.534;2022-08-01T08:44:59;98608.09;;;27.25;27.43
63321;BME280;49449;48.800;9.534;2022-08-01T08:47:31;98617.72;;;27.35;27.23
63321;BME280;49449;48.800;9.534;2022-08-01T08:50:01;98622.38;;;27.34;27.51
63321;BME280;49449;48.800;9.534;2022-08-01T08:52:35;98627.00;;;27.34;27.46
63321;BME280;49449;48.800;9.534;2022-08-01T08:55:07;98621.56;;;27.46;26.78
63321;BME280;49449;48.800;9.534;2022-08-01T08:57:39;98619.41;;;27.52;26.47
63321;BME280;49449;48.800;9.534;2022-08-01T09:00:08;98615.72;;;26.98;27.43
63321;BME280;49449;48.800;9.534;2022-08-01T09:02:41;98615.69;;;27.44;27.28
63321;BME280;49449;48.800;9.534;2022-08-01T09:05:14;98625.19;;;27.63;26.74
63321;BME280;49449;48.800;9.534;2022-08-01T09:07:45;98612.09;;;27.77;26.63
63321;BME280;49449;48.800;9.534;2022-08-01T09:10:15;98613.31;;;27.55;27.07
63321;BME280;49449;48.800;9.534;2022-08-01T09:13:02;98616.13;;;27.59;26.78
63321;BME280;49449;48.800;9.534;2022-08-01T09:15:38;98615.16;;;27.75;27.06
63321;BME280;49449;48.800;9.534;2022-08-01T09:18:07;98613.53;;;27.87;26.44
63321;BME280;49449;48.800;9.534;2022-08-01T09:20:37;98621.44;;;27.92;26.60
63321;BME280;49449;48.800;9.534;2022-08-01T09:23:05;98619.75;;;27.87;26.64
63321;BME280;49449;48.800;9.534;2022-08-01T09:25:51;98618.28;;;27.90;26.57
63321;BME280;49449;48.800;9.534;2022-08-01T09:28:27;98620.31;;;28.05;26.73
63321;BME280;49449;48.800;9.534;2022-08-01T09:30:58;98620.59;;;28.28;26.17
63321;BME280;49449;48.800;9.534;2022-08-01T09:33:46;98616.53;;;28.22;25.68
63321;BME280;49449;48.800;9.534;2022-08-01T09:36:16;98616.63;;;28.26;26.20
63321;BME280;49449;48.800;9.534;2022-08-01T09:38:45;98627.84;;;28.24;25.98
63321;BME280;49449;48.800;9.534;2022-08-01T09:41:13;98621.28;;;28.25;25.87
63321;BME280;49449;48.800;9.534;2022-08-01T09:43:48;98624.66;;;28.35;25.30
63321;BME280;49449;48.800;9.534;2022-08-01T09:46:16;98629.72;;;28.36;25.07
63321;BME280;49449;48.800;9.534;2022-08-01T09:48:59;98623.22;;;28.25;25.31
63321;BME280;49449;48.800;9.534;2022-08-01T09:51:30;98625.25;;;28.16;25.73
63321;BME280;49449;48.800;9.534;2022-08-01T09:54:01;98627.41;;;28.10;25.80
63321;BME280;49449;48.800;9.534;2022-08-01T09:56:36;98621.97;;;28.22;25.45
63321;BME280;49449;48.800;9.534;2022-08-01T09:59:05;98623.31;;;28.28;25.99
63321;BME280;49449;48.800;9.534;2022-08-01T10:01:43;98621.63;;;28.24;25.58
63321;BME280;49449;48.800;9.534;2022-08-01T10:04:13;98620.75;;;28.07;25.66
63321;BME280;49449;48.800;9.534;2022-08-01T10:06:47;98618.38;;;28.06;26.29
63321;BME280;49449;48.800;9.534;2022-08-01T10:09:29;98613.50;;;27.99;25.67
63321;BME280;49449;48.800;9.534;2022-08-01T10:11:59;98621.09;;;28.06;25.23
63321;BME280;49449;48.800;9.534;2022-08-01T10:14:28;98609.91;;;27.95;25.27
63321;BME280;49449;48.800;9.534;2022-08-01T10:16:58;98609.03;;;27.54;25.59
63321;BME280;49449;48.800;9.534;2022-08-01T10:19:29;98608.56;;;27.52;25.63
63321;BME280;49449;48.800;9.534;2022-08-01T10:22:00;98607.91;;;27.80;25.59
63321;BME280;49449;48.800;9.534;2022-08-01T10:24:29;98603.00;;;27.98;26.10
63321;BME280;49449;48.800;9.534;2022-08-01T10:27:00;98601.63;;;28.04;25.44
63321;BME280;49449;48.800;9.534;2022-08-01T10:29:37;98603.41;;;28.12;25.22
63321;BME280;49449;48.800;9.534;2022-08-01T10:32:07;98598.88;;;28.28;25.44
63321;BME280;49449;48.800;9.534;2022-08-01T10:34:37;98601.53;;;28.41;25.46
63321;BME280;49449;48.800;9.534;2022-08-01T10:37:07;98597.44;;;28.47;24.91
63321;BME280;49449;48.800;9.534;2022-08-01T10:39:35;98592.47;;;28.65;24.99
63321;BME280;49449;48.800;9.534;2022-08-01T10:42:05;98588.84;;;28.73;24.42
63321;BME280;49449;48.800;9.534;2022-08-01T10:44:37;98588.06;;;28.73;24.72
63321;BME280;49449;48.800;9.534;2022-08-01T10:47:09;98582.72;;;28.76;24.69
63321;BME280;49449;48.800;9.534;2022-08-01T10:49:41;98584.28;;;28.77;24.87
63321;BME280;49449;48.800;9.534;2022-08-01T10:52:15;98587.72;;;28.90;24.68
63321;BME280;49449;48.800;9.534;2022-08-01T10:54:46;98586.91;;;28.90;24.38
63321;BME280;49449;48.800;9.534;2022-08-01T10:57:14;98580.44;;;29.10;24.18
63321;BME280;49449;48.800;9.534;2022-08-01T10:59:48;98572.47;;;29.17;24.03
63321;BME280;49449;48.800;9.534;2022-08-01T11:02:26;98585.28;;;29.17;24.16
63321;BME280;49449;48.800;9.534;2022-08-01T11:05:00;98587.34;;;29.20;24.15
63321;BME280;49449;48.800;9.534;2022-08-01T11:07:42;98586.84;;;29.18;23.61
63321;BME280;49449;48.800;9.534;2022-08-01T11:10:21;98588.00;;;29.17;24.09
63321;BME280;49449;48.800;9.534;2022-08-01T11:12:50;98589.56;;;29.02;23.40
63321;BME280;49449;48.800;9.534;2022-08-01T11:15:26;98577.47;;;28.83;23.76
63321;BME280;49449;48.800;9.534;2022-08-01T11:18:00;98579.38;;;28.39;24.45
63321;BME280;49449;48.800;9.534;2022-08-01T11:20:30;98574.06;;;28.58;24.71
63321;BME280;49449;48.800;9.534;2022-08-01T11:23:24;98577.13;;;28.85;24.81
63321;BME280;49449;48.800;9.534;2022-08-01T11:26:19;98578.63;;;28.70;24.42
63321;BME280;49449;48.800;9.534;2022-08-01T11:29:15;98572.91;;;28.59;23.99
63321;BME280;49449;48.800;9.534;2022-08-01T11:31:48;98561.53;;;28.54;23.95
63321;BME280;49449;48.800;9.534;2022-08-01T11:34:16;98561.53;;;28.54;24.36
63321;BME280;49449;48.800;9.534;2022-08-01T11:36:45;98562.56;;;28.65;23.91
63321;BME280;49449;48.800;9.534;2022-08-01T11:39:29;98548.03;;;28.57;24.05
63321;BME280;49449;48.800;9.534;2022-08-01T11:42:18;98549.63;;;28.58;24.62
63321;BME280;49449;48.800;9.534;2022-08-01T11:44:49;98545.16;;;28.66;24.79
63321;BME280;49449;48.800;9.534;2022-08-01T11:47:17;98546.84;;;28.71;24.20
63321;BME280;49449;48.800;9.534;2022-08-01T11:49:48;98549.53;;;28.55;24.41
63321;BME280;49449;48.800;9.534;2022-08-01T11:52:26;98541.25;;;28.35;24.24
63321;BME280;49449;48.800;9.534;2022-08-01T11:54:57;98541.16;;;28.31;24.63
63321;BME280;49449;48.800;9.534;2022-08-01T11:57:27;98536.22;;;28.21;24.70
63321;BME280;49449;48.800;9.534;2022-08-01T11:59:58;98536.50;;;28.32;24.64
63321;BME280;49449;48.800;9.534;2022-08-01T12:02:27;98534.38;;;28.25;24.37
63321;BME280;49449;48.800;9.534;2022-08-01T12:04:58;98542.63;;;28.29;24.96
63321;BME280;49449;48.800;9.534;2022-08-01T12:07:30;98543.22;;;28.22;24.22
63321;BME280;49449;48.800;9.534;2022-08-01T12:10:02;98540.06;;;28.20;25.17
63321;BME280;49449;48.800;9.534;2022-08-01T12:12:32;98528.28;;;28.16;24.93
63321;BME280;49449;48.800;9.534;2022-08-01T12:15:02;98529.63;;;28.22;25.16
63321;BME280;49449;48.800;9.534;2022-08-01T12:17:35;98539.16;;;28.16;24.52
63321;BME280;49449;48.800;9.534;2022-08-01T12:20:07;98530.16;;;28.28;24.90
63321;BME280;49449;48.800;9.534;2022-08-01T12:22:35;98532.94;;;28.44;24.40
63321;BME280;49449;48.800;9.534;2022-08-01T12:25:10;98523.03;;;28.36;24.69
63321;BME280;49449;48.800;9.534;2022-08-01T12:27:40;98514.69;;;28.28;24.52
63321;BME280;49449;48.800;9.534;2022-08-01T12:30:11;98523.03;;;28.36;24.15
63321;BME280;49449;48.800;9.534;2022-08-01T12:32:40;98518.72;;;28.35;24.56
63321;BME280;49449;48.800;9.534;2022-08-01T12:35:10;98517.06;;;28.30;24.36
63321;BME280;49449;48.800;9.534;2022-08-01T12:37:45;98508.84;;;28.14;24.40
63321;BME280;49449;48.800;9.534;2022-08-01T12:40:17;98514.84;;;28.07;24.43
63321;BME280;49449;48.800;9.534;2022-08-01T12:42:46;98514.97;;;28.11;24.63
63321;BME280;49449;48.800;9.534;2022-08-01T12:45:17;98508.38;;;28.12;24.64
63321;BME280;49449;48.800;9.534;2022-08-01T12:47:46;98513.13;;;28.15;23.91
63321;BME280;49449;48.800;9.534;2022-08-01T12:50:18;98502.69;;;28.17;24.07
63321;BME280;49449;48.800;9.534;2022-08-01T12:52:46;98506.19;;;28.02;24.37
63321;BME280;49449;48.800;9.534;2022-08-01T12:55:17;98509.22;;;28.00;24.62
63321;BME280;49449;48.800;9.534;2022-08-01T12:57:47;98506.97;;;28.02;24.51
63321;BME280;49449;48.800;9.534;2022-08-01T13:00:20;98503.41;;;28.14;24.73
63321;BME280;49449;48.800;9.534;2022-08-01T13:02:51;98493.56;;;28.22;24.16
63321;BME280;49449;48.800;9.534;2022-08-01T13:05:27;98494.78;;;28.40;23.44
63321;BME280;49449;48.800;9.534;2022-08-01T13:07:55;98495.69;;;28.44;24.26
63321;BME280;49449;48.800;9.534;2022-08-01T13:10:29;98498.13;;;28.34;24.38
63321;BME280;49449;48.800;9.534;2022-08-01T13:12:58;98503.00;;;28.28;24.15
63321;BME280;49449;48.800;9.534;2022-08-01T13:15:28;98500.22;;;28.12;24.22
63321;BME280;49449;48.800;9.534;2022-08-01T13:18:21;98505.38;;;28.01;24.39
63321;BME280;49449;48.800;9.534;2022-08-01T13:20:49;98500.56;;;27.94;24.58